sensor_id;sensor_type;location;lat;lon;timestamp;P1;durP1;ratioP1;P2;durP2;ratioP2
36833;SDS011;48003;52.084;5.224;2023-06-22T00:00:02;10.1;;;4.8;;
36833;SDS011;48003;52.084;5.224;2023-06-22T00:01:38;7.4;;;4.61;;
36833;SDS011;48003;52.084;5.224;2023-06-22T00:03:15;9.31;;;5.2;;
36833;SDS011;48003;52.084;5.224;2023-06-22T00:04:51;8.71;;;4.91;;
36833;SDS011;48003;52.084;5.224;2023-06-22T00:08:03;10.8;;;5.8;;
36833;SDS011;48003;52.084;5.224;2023-06-22T00:09:40;7.4;;;5.4;;
36833;SDS011;48003;52.084;5.224;2023-06-22T00:11:16;8.9;;;5.0;;
36833;SDS011;48003;52.084;5.224;2023-06-22T00:14:29;7.6;;;5.3;;
36833;SDS011;48003;52.084;5.224;2023-06-22T00:16:05;11.6;;;5.7;;
36833;SDS011;48003;52.084;5.224;2023-06-22T00:17:41;7.7;;;5.0;;
36833;SDS011;48003;52.084;5.224;2023-06-22T00:20:54;10.5;;;5.6;;
36833;SDS011;48003;52.084;5.224;2023-06-22T00:22:30;8.2;;;5.6;;
36833;SDS011;48003;52.084;5.224;2023-06-22T00:24:07;7.1;;;6.0;;
36833;SDS011;48003;52.084;5.224;2023-06-22T00:27:19;9.71;;;6.1;;
36833;SDS011;48003;52.084;5.224;2023-06-22T00:28:55;8.71;;;5.8;;
36833;SDS011;48003;52.084;5.224;2023-06-22T00:30:31;8.9;;;6.0;;
36833;SDS011;48003;52.084;5.224;2023-06-22T00:32:08;9.31;;;6.5;;
36833;SDS011;48003;52.084;5.224;2023-06-22T00:35:21;9.4;;;6.0;;
36833;SDS011;48003;52.084;5.224;2023-06-22T00:36:57;9.4;;;6.0;;
36833;SDS011;48003;52.084;5.224;2023-06-22T00:38:33;8.2;;;5.9;;
36833;SDS011;48003;52.084;5.224;2023-06-22T00:41:46;9.31;;;5.9;;
36833;SDS011;48003;52.084;5.224;2023-06-22T00:43:23;7.5;;;5.6;;
36833;SDS011;48003;52.084;5.224;2023-06-22T00:44:59;9.4;;;5.5;;
36833;SDS011;48003;52.084;5.224;2023-06-22T00:48:11;8.4;;;5.5;;
36833;SDS011;48003;52.084;5.224;2023-06-22T00:49:50;9.1;;;5.5;;
36833;SDS011;48003;52.084;5.224;2023-06-22T00:51:26;8.1;;;5.5;;
36833;SDS011;48003;52.084;5.224;2023-06-22T00:53:04;7.4;;;5.3;;
36833;SDS011;48003;52.084;5.224;2023-06-22T00:56:20;8.71;;;5.0;;
36833;SDS011;48003;52.084;5.224;2023-06-22T00:57:56;7.9;;;5.3;;
36833;SDS011;48003;52.084;5.224;2023-06-22T00:59:32;7.6;;;5.2;;
36833;SDS011;48003;52.084;5.224;2023-06-22T01:02:45;7.7;;;5.11;;
36833;SDS011;48003;52.084;5.224;2023-06-22T01:04:24;7.8;;;5.2;;
36833;SDS011;48003;52.084;5.224;2023-06-22T01:06:12;7.9;;;5.0;;
36833;SDS011;48003;52.084;5.224;2023-06-22T01:07:58;7.9;;;5.4;;
36833;SDS011;48003;52.084;5.224;2023-06-22T01:09:43;8.9;;;5.5;;
36833;SDS011;48003;52.084;5.224;2023-06-22T01:13:16;9.71;;;6.3;;
36833;SDS011;48003;52.084;5.224;2023-06-22T01:15:02;7.9;;;5.4;;
36833;SDS011;48003;52.084;5.224;2023-06-22T01:16:44;8.1;;;4.91;;
36833;SDS011;48003;52.084;5.224;2023-06-22T01:18:23;10.0;;;5.7;;
36833;SDS011;48003;52.084;5.224;2023-06-22T01:21:44;8.0;;;5.11;;
36833;SDS011;48003;52.084;5.224;2023-06-22T01:23:26;10.1;;;5.6;;
36833;SDS011;48003;52.084;5.224;2023-06-22T01:25:10;10.6;;;5.2;;
36833;SDS011;48003;52.084;5.224;2023-06-22T01:26:52;7.0;;;5.2;;
36833;SDS011;48003;52.084;5.224;2023-06-22T01:28:39;7.0;;;5.0;;
36833;SDS011;48003;52.084;5.224;2023-06-22T01:32:00;7.3;;;5.11;;
36833;SDS011;48003;52.084;5.224;2023-06-22T01:33:41;7.9;;;6.0;;
36833;SDS011;48003;52.084;5.224;2023-06-22T01:35:19;8.1;;;5.9;;
36833;SDS011;48003;52.084;5.224;2023-06-22T01:36:57;9.5;;;6.0;;
36833;SDS011;48003;52.084;5.224;2023-06-22T01:40:14;9.0;;;6.2;;
36833;SDS011;48003;52.084;5.224;2023-06-22T01:41:51;8.2;;;5.7;;
36833;SDS011;48003;52.084;5.224;2023-06-22T01:43:29;9.31;;;6.6;;
36833;SDS011;48003;52.084;5.224;2023-06-22T01:46:43;8.71;;;5.7;;
36833;SDS011;48003;52.084;5.224;2023-06-22T01:48:20;8.6;;;5.8;;
36833;SDS011;48003;52.084;5.224;2023-06-22T01:49:57;10.6;;;6.0;;
36833;SDS011;48003;52.084;5.224;2023-06-22T01:51:34;11.5;;;6.6;;
36833;SDS011;48003;52.084;5.224;2023-06-22T01:54:46;11.0;;;6.3;;
36833;SDS011;48003;52.084;5.224;2023-06-22T01:56:23;9.1;;;5.9;;
36833;SDS011;48003;52.084;5.224;2023-06-22T01:58:01;9.4;;;6.0;;
36833;SDS011;48003;52.084;5.224;2023-06-22T02:01:24;9.4;;;6.0;;
36833;SDS011;48003;52.084;5.224;2023-06-22T02:03:08;10.3;;;6.1;;
36833;SDS011;48003;52.084;5.224;2023-06-22T02:04:51;9.5;;;6.3;;
36833;SDS011;48003;52.084;5.224;2023-06-22T02:06:34;8.4;;;5.7;;
36833;SDS011;48003;52.084;5.224;2023-06-22T02:08:15;9.9;;;6.2;;
36833;SDS011;48003;52.084;5.224;2023-06-22T02:11:35;8.9;;;6.0;;
36833;SDS011;48003;52.084;5.224;2023-06-22T02:13:13;12.5;;;6.6;;
36833;SDS011;48003;52.084;5.224;2023-06-22T02:14:51;8.71;;;5.9;;
36833;SDS011;48003;52.084;5.224;2023-06-22T02:18:07;9.21;;;6.1;;
36833;SDS011;48003;52.084;5.224;2023-06-22T02:19:44;10.8;;;6.3;;
36833;SDS011;48003;52.084;5.224;2023-06-22T02:21:20;8.5;;;6.1;;
36833;SDS011;48003;52.084;5.224;2023-06-22T02:22:57;9.5;;;6.9;;
36833;SDS011;48003;52.084;5.224;2023-06-22T02:26:09;8.6;;;5.8;;
36833;SDS011;48003;52.084;5.224;2023-06-22T02:27:46;9.81;;;6.4;;
36833;SDS011;48003;52.084;5.224;2023-06-22T02:29:22;9.31;;;6.6;;
36833;SDS011;48003;52.084;5.224;2023-06-22T02:32:34;9.21;;;6.7;;
36833;SDS011;48003;52.084;5.224;2023-06-22T02:34:11;8.81;;;6.0;;
36833;SDS011;48003;52.084;5.224;2023-06-22T02:35:47;11.5;;;6.6;;
36833;SDS011;48003;52.084;5.224;2023-06-22T02:39:00;8.71;;;6.1;;
36833;SDS011;48003;52.084;5.224;2023-06-22T02:40:36;9.4;;;6.4;;
36833;SDS011;48003;52.084;5.224;2023-06-22T02:42:12;10.21;;;6.5;;
36833;SDS011;48003;52.084;5.224;2023-06-22T02:43:48;8.6;;;5.9;;
36833;SDS011;48003;52.084;5.224;2023-06-22T02:47:01;8.9;;;6.5;;
36833;SDS011;48003;52.084;5.224;2023-06-22T02:48:38;11.0;;;7.0;;
36833;SDS011;48003;52.084;5.224;2023-06-22T02:50:15;9.81;;;7.2;;
36833;SDS011;48003;52.084;5.224;2023-06-22T02:53:27;9.9;;;6.8;;
36833;SDS011;48003;52.084;5.224;2023-06-22T02:55:04;9.71;;;7.0;;
36833;SDS011;48003;52.084;5.224;2023-06-22T02:56:42;10.1;;;7.2;;
36833;SDS011;48003;52.084;5.224;2023-06-22T02:59:54;11.5;;;7.2;;
36833;SDS011;48003;52.084;5.224;2023-06-22T03:01:30;9.4;;;6.9;;
36833;SDS011;48003;52.084;5.224;2023-06-22T03:03:07;10.6;;;6.5;;
36833;SDS011;48003;52.084;5.224;2023-06-22T03:06:20;11.5;;;7.9;;
36833;SDS011;48003;52.084;5.224;2023-06-22T03:07:56;9.21;;;6.7;;
36833;SDS011;48003;52.084;5.224;2023-06-22T03:09:32;10.0;;;7.0;;
36833;SDS011;48003;52.084;5.224;2023-06-22T03:11:08;10.8;;;7.2;;
36833;SDS011;48003;52.084;5.224;2023-06-22T03:14:23;10.3;;;6.8;;
36833;SDS011;48003;52.084;5.224;2023-06-22T03:15:59;10.0;;;6.7;;
36833;SDS011;48003;52.084;5.224;2023-06-22T03:17:36;10.21;;;6.6;;
36833;SDS011;48003;52.084;5.224;2023-06-22T03:20:49;9.81;;;6.7;;
36833;SDS011;48003;52.084;5.224;2023-06-22T03:22:25;9.21;;;6.1;;
36833;SDS011;48003;52.084;5.224;2023-06-22T03:24:01;9.0;;;6.4;;
36833;SDS011;48003;52.084;5.224;2023-06-22T03:27:13;9.71;;;5.8;;
36833;SDS011;48003;52.084;5.224;2023-06-22T03:28:49;10.4;;;7.1;;
36833;SDS011;48003;52.084;5.224;2023-06-22T03:30:26;9.5;;;7.0;;
36833;SDS011;48003;52.084;5.224;2023-06-22T03:32:02;11.2;;;7.2;;
36833;SDS011;48003;52.084;5.224;2023-06-22T03:35:14;12.5;;;7.1;;
36833;SDS011;48003;52.084;5.224;2023-06-22T03:36:50;12.5;;;7.1;;
36833;SDS011;48003;52.084;5.224;2023-06-22T03:38:26;10.6;;;7.2;;
36833;SDS011;48003;52.084;5.224;2023-06-22T03:41:40;10.9;;;7.8;;
36833;SDS011;48003;52.084;5.224;2023-06-22T03:43:16;10.8;;;7.5;;
36833;SDS011;48003;52.084;5.224;2023-06-22T03:44:52;11.4;;;7.9;;
36833;SDS011;48003;52.084;5.224;2023-06-22T03:48:05;11.5;;;8.5;;
36833;SDS011;48003;52.084;5.224;2023-06-22T03:49:41;12.1;;;8.2;;
36833;SDS011;48003;52.084;5.224;2023-06-22T03:51:17;12.4;;;8.31;;
36833;SDS011;48003;52.084;5.224;2023-06-22T03:52:53;13.6;;;9.4;;
36833;SDS011;48003;52.084;5.224;2023-06-22T03:56:06;14.6;;;9.6;;
36833;SDS011;48003;52.084;5.224;2023-06-22T03:57:42;15.4;;;9.81;;
36833;SDS011;48003;52.084;5.224;2023-06-22T03:59:19;14.8;;;10.6;;
36833;SDS011;48003;52.084;5.224;2023-06-22T04:02:31;13.1;;;9.5;;
36833;SDS011;48003;52.084;5.224;2023-06-22T04:04:07;12.5;;;9.5;;
36833;SDS011;48003;52.084;5.224;2023-06-22T04:05:43;14.0;;;9.6;;
36833;SDS011;48003;52.084;5.224;2023-06-22T04:08:57;15.3;;;9.6;;
36833;SDS011;48003;52.084;5.224;2023-06-22T04:10:33;16.2;;;11.2;;
36833;SDS011;48003;52.084;5.224;2023-06-22T04:12:09;14.1;;;10.21;;
36833;SDS011;48003;52.084;5.224;2023-06-22T04:13:45;11.9;;;9.21;;
36833;SDS011;48003;52.084;5.224;2023-06-22T04:16:57;15.0;;;10.6;;
36833;SDS011;48003;52.084;5.224;2023-06-22T04:18:34;12.4;;;9.6;;
36833;SDS011;48003;52.084;5.224;2023-06-22T04:20:10;13.6;;;9.81;;
36833;SDS011;48003;52.084;5.224;2023-06-22T04:23:22;13.0;;;10.0;;
36833;SDS011;48003;52.084;5.224;2023-06-22T04:24:58;12.5;;;9.6;;
36833;SDS011;48003;52.084;5.224;2023-06-22T04:26:34;12.7;;;9.81;;
36833;SDS011;48003;52.084;5.224;2023-06-22T04:29:47;14.1;;;10.1;;
36833;SDS011;48003;52.084;5.224;2023-06-22T04:31:23;15.1;;;10.1;;
36833;SDS011;48003;52.084;5.224;2023-06-22T04:32:59;14.6;;;10.5;;
36833;SDS011;48003;52.084;5.224;2023-06-22T04:36:11;16.61;;;10.0;;
36833;SDS011;48003;52.084;5.224;2023-06-22T04:39:24;16.11;;;10.7;;
36833;SDS011;48003;52.084;5.224;2023-06-22T04:41:00;16.11;;;10.7;;
36833;SDS011;48003;52.084;5.224;2023-06-22T04:44:16;16.61;;;11.2;;
36833;SDS011;48003;52.084;5.224;2023-06-22T04:45:53;14.9;;;10.7;;
36833;SDS011;48003;52.084;5.224;2023-06-22T04:47:30;15.1;;;10.8;;
36833;SDS011;48003;52.084;5.224;2023-06-22T04:50:43;15.7;;;10.8;;
36833;SDS011;48003;52.084;5.224;2023-06-22T04:52:19;15.2;;;11.0;;
36833;SDS011;48003;52.084;5.224;2023-06-22T04:53:55;16.9;;;11.9;;
36833;SDS011;48003;52.084;5.224;2023-06-22T04:57:08;16.61;;;11.6;;
36833;SDS011;48003;52.084;5.224;2023-06-22T04:58:44;14.9;;;11.2;;
36833;SDS011;48003;52.084;5.224;2023-06-22T05:00:20;17.41;;;11.8;;
36833;SDS011;48003;52.084;5.224;2023-06-22T05:01:57;18.7;;;12.2;;
36833;SDS011;48003;52.084;5.224;2023-06-22T05:05:10;18.0;;;12.2;;
36833;SDS011;48003;52.084;5.224;2023-06-22T05:06:47;15.8;;;12.6;;
36833;SDS011;48003;52.084;5.224;2023-06-22T05:08:23;16.4;;;11.5;;
36833;SDS011;48003;52.084;5.224;2023-06-22T05:11:35;17.7;;;11.7;;
36833;SDS011;48003;52.084;5.224;2023-06-22T05:13:12;15.3;;;11.3;;
36833;SDS011;48003;52.084;5.224;2023-06-22T05:14:48;15.4;;;11.2;;
36833;SDS011;48003;52.084;5.224;2023-06-22T05:18:00;15.7;;;11.9;;
36833;SDS011;48003;52.084;5.224;2023-06-22T05:19:36;15.7;;;11.7;;
36833;SDS011;48003;52.084;5.224;2023-06-22T05:21:12;17.11;;;12.2;;
36833;SDS011;48003;52.084;5.224;2023-06-22T05:22:48;17.91;;;11.7;;
36833;SDS011;48003;52.084;5.224;2023-06-22T05:26:01;17.41;;;12.8;;
36833;SDS011;48003;52.084;5.224;2023-06-22T05:27:37;16.11;;;12.1;;
36833;SDS011;48003;52.084;5.224;2023-06-22T05:29:13;17.5;;;12.9;;
36833;SDS011;48003;52.084;5.224;2023-06-22T05:32:25;18.41;;;12.9;;
36833;SDS011;48003;52.084;5.224;2023-06-22T05:34:02;17.5;;;13.0;;
36833;SDS011;48003;52.084;5.224;2023-06-22T05:35:38;16.0;;;12.2;;
36833;SDS011;48003;52.084;5.224;2023-06-22T05:38:50;18.11;;;12.9;;
36833;SDS011;48003;52.084;5.224;2023-06-22T05:40:27;16.4;;;12.0;;
36833;SDS011;48003;52.084;5.224;2023-06-22T05:42:04;15.5;;;10.9;;
36833;SDS011;48003;52.084;5.224;2023-06-22T05:45:17;17.7;;;12.4;;
36833;SDS011;48003;52.084;5.224;2023-06-22T05:46:53;19.2;;;11.5;;
36833;SDS011;48003;52.084;5.224;2023-06-22T05:48:29;17.8;;;12.9;;
36833;SDS011;48003;52.084;5.224;2023-06-22T05:50:06;18.3;;;14.0;;
36833;SDS011;48003;52.084;5.224;2023-06-22T05:53:20;17.5;;;13.8;;
36833;SDS011;48003;52.084;5.224;2023-06-22T05:54:56;21.9;;;14.3;;
36833;SDS011;48003;52.084;5.224;2023-06-22T05:56:32;19.3;;;13.7;;
36833;SDS011;48003;52.084;5.224;2023-06-22T05:59:44;20.8;;;14.2;;
36833;SDS011;48003;52.084;5.224;2023-06-22T06:01:21;22.4;;;14.9;;
36833;SDS011;48003;52.084;5.224;2023-06-22T06:02:57;21.5;;;14.6;;
36833;SDS011;48003;52.084;5.224;2023-06-22T06:06:09;22.4;;;15.3;;
36833;SDS011;48003;52.084;5.224;2023-06-22T06:07:45;22.7;;;14.6;;
36833;SDS011;48003;52.084;5.224;2023-06-22T06:09:22;20.8;;;16.3;;
36833;SDS011;48003;52.084;5.224;2023-06-22T06:10:58;20.41;;;15.0;;
36833;SDS011;48003;52.084;5.224;2023-06-22T06:14:11;22.3;;;16.4;;
36833;SDS011;48003;52.084;5.224;2023-06-22T06:15:47;20.6;;;15.8;;
36833;SDS011;48003;52.084;5.224;2023-06-22T06:17:23;22.6;;;16.2;;
36833;SDS011;48003;52.084;5.224;2023-06-22T06:20:35;23.4;;;16.4;;
36833;SDS011;48003;52.084;5.224;2023-06-22T06:22:11;23.0;;;17.41;;
36833;SDS011;48003;52.084;5.224;2023-06-22T06:23:48;22.6;;;16.11;;
36833;SDS011;48003;52.084;5.224;2023-06-22T06:27:00;21.3;;;16.11;;
36833;SDS011;48003;52.084;5.224;2023-06-22T06:28:36;23.5;;;15.8;;
36833;SDS011;48003;52.084;5.224;2023-06-22T06:30:13;23.6;;;17.11;;
36833;SDS011;48003;52.084;5.224;2023-06-22T06:31:51;22.8;;;16.2;;
36833;SDS011;48003;52.084;5.224;2023-06-22T06:35:04;22.2;;;16.0;;
36833;SDS011;48003;52.084;5.224;2023-06-22T06:36:40;23.9;;;16.5;;
36833;SDS011;48003;52.084;5.224;2023-06-22T06:38:16;23.7;;;16.3;;
36833;SDS011;48003;52.084;5.224;2023-06-22T06:41:29;23.7;;;17.3;;
36833;SDS011;48003;52.084;5.224;2023-06-22T06:43:05;24.4;;;16.3;;
36833;SDS011;48003;52.084;5.224;2023-06-22T06:44:41;20.9;;;15.5;;
36833;SDS011;48003;52.084;5.224;2023-06-22T06:47:53;24.1;;;16.8;;
36833;SDS011;48003;52.084;5.224;2023-06-22T06:49:29;22.4;;;15.6;;
36833;SDS011;48003;52.084;5.224;2023-06-22T06:51:06;20.41;;;15.6;;
36833;SDS011;48003;52.084;5.224;2023-06-22T06:54:18;22.8;;;15.3;;
36833;SDS011;48003;52.084;5.224;2023-06-22T06:55:54;19.11;;;13.9;;
36833;SDS011;48003;52.084;5.224;2023-06-22T06:57:30;22.0;;;15.4;;
36833;SDS011;48003;52.084;5.224;2023-06-22T06:59:06;22.8;;;15.4;;
36833;SDS011;48003;52.084;5.224;2023-06-22T07:02:19;21.6;;;15.9;;
36833;SDS011;48003;52.084;5.224;2023-06-22T07:03:55;23.3;;;15.4;;
36833;SDS011;48003;52.084;5.224;2023-06-22T07:05:31;29.5;;;17.0;;
36833;SDS011;48003;52.084;5.224;2023-06-22T07:08:43;21.8;;;15.7;;
36833;SDS011;48003;52.084;5.224;2023-06-22T07:10:20;20.7;;;15.1;;
36833;SDS011;48003;52.084;5.224;2023-06-22T07:11:56;21.7;;;14.7;;
36833;SDS011;48003;52.084;5.224;2023-06-22T07:15:08;21.0;;;13.9;;
36833;SDS011;48003;52.084;5.224;2023-06-22T07:16:45;20.41;;;14.1;;
36833;SDS011;48003;52.084;5.224;2023-06-22T07:18:21;20.2;;;14.1;;
36833;SDS011;48003;52.084;5.224;2023-06-22T07:19:57;20.6;;;14.7;;
36833;SDS011;48003;52.084;5.224;2023-06-22T07:23:10;19.3;;;14.1;;
36833;SDS011;48003;52.084;5.224;2023-06-22T07:24:46;18.91;;;13.1;;
36833;SDS011;48003;52.084;5.224;2023-06-22T07:26:22;21.3;;;12.8;;
36833;SDS011;48003;52.084;5.224;2023-06-22T07:29:38;15.5;;;12.4;;
36833;SDS011;48003;52.084;5.224;2023-06-22T07:31:14;18.61;;;12.1;;
36833;SDS011;48003;52.084;5.224;2023-06-22T07:32:50;16.7;;;11.1;;
36833;SDS011;48003;52.084;5.224;2023-06-22T07:36:02;14.4;;;10.21;;
36833;SDS011;48003;52.084;5.224;2023-06-22T07:37:39;13.3;;;9.9;;
36833;SDS011;48003;52.084;5.224;2023-06-22T07:39:16;15.7;;;10.1;;
36833;SDS011;48003;52.084;5.224;2023-06-22T07:40:51;14.5;;;10.4;;
36833;SDS011;48003;52.084;5.224;2023-06-22T07:44:04;12.0;;;9.21;;
36833;SDS011;48003;52.084;5.224;2023-06-22T07:45:40;14.0;;;9.81;;
36833;SDS011;48003;52.084;5.224;2023-06-22T07:47:16;14.0;;;10.3;;
36833;SDS011;48003;52.084;5.224;2023-06-22T07:50:29;15.3;;;10.8;;
36833;SDS011;48003;52.084;5.224;2023-06-22T07:52:05;12.7;;;9.81;;
36833;SDS011;48003;52.084;5.224;2023-06-22T07:53:42;14.6;;;10.1;;
36833;SDS011;48003;52.084;5.224;2023-06-22T07:56:55;17.3;;;10.7;;
36833;SDS011;48003;52.084;5.224;2023-06-22T07:58:31;12.8;;;10.1;;
36833;SDS011;48003;52.084;5.224;2023-06-22T08:00:08;16.2;;;11.4;;
36833;SDS011;48003;52.084;5.224;2023-06-22T08:03:22;13.6;;;10.8;;
36833;SDS011;48003;52.084;5.224;2023-06-22T08:04:58;14.4;;;9.81;;
36833;SDS011;48003;52.084;5.224;2023-06-22T08:06:34;12.1;;;9.0;;
36833;SDS011;48003;52.084;5.224;2023-06-22T08:08:10;11.6;;;8.6;;
36833;SDS011;48003;52.084;5.224;2023-06-22T08:11:24;13.9;;;9.31;;
36833;SDS011;48003;52.084;5.224;2023-06-22T08:13:01;11.4;;;8.9;;
36833;SDS011;48003;52.084;5.224;2023-06-22T08:14:38;12.6;;;8.31;;
36833;SDS011;48003;52.084;5.224;2023-06-22T08:17:50;9.71;;;7.7;;
36833;SDS011;48003;52.084;5.224;2023-06-22T08:19:27;12.9;;;8.0;;
36833;SDS011;48003;52.084;5.224;2023-06-22T08:21:04;10.8;;;7.5;;
36833;SDS011;48003;52.084;5.224;2023-06-22T08:24:17;13.4;;;7.5;;
36833;SDS011;48003;52.084;5.224;2023-06-22T08:25:53;10.1;;;7.5;;
36833;SDS011;48003;52.084;5.224;2023-06-22T08:27:29;10.3;;;6.8;;
36833;SDS011;48003;52.084;5.224;2023-06-22T08:29:05;9.5;;;6.5;;
36833;SDS011;48003;52.084;5.224;2023-06-22T08:32:18;10.5;;;5.9;;
36833;SDS011;48003;52.084;5.224;2023-06-22T08:33:54;9.6;;;5.8;;
36833;SDS011;48003;52.084;5.224;2023-06-22T08:35:30;9.71;;;5.2;;
36833;SDS011;48003;52.084;5.224;2023-06-22T08:38:42;10.7;;;6.9;;
36833;SDS011;48003;52.084;5.224;2023-06-22T08:40:19;9.81;;;6.7;;
36833;SDS011;48003;52.084;5.224;2023-06-22T08:41:56;9.9;;;6.6;;
36833;SDS011;48003;52.084;5.224;2023-06-22T08:45:08;9.71;;;5.6;;
36833;SDS011;48003;52.084;5.224;2023-06-22T08:46:45;9.1;;;5.2;;
36833;SDS011;48003;52.084;5.224;2023-06-22T08:48:21;8.1;;;6.1;;
36833;SDS011;48003;52.084;5.224;2023-06-22T08:49:58;8.1;;;5.5;;
36833;SDS011;48003;52.084;5.224;2023-06-22T08:53:10;7.7;;;5.3;;
36833;SDS011;48003;52.084;5.224;2023-06-22T08:54:46;7.4;;;5.2;;
36833;SDS011;48003;52.084;5.224;2023-06-22T08:56:22;6.4;;;4.41;;
36833;SDS011;48003;52.084;5.224;2023-06-22T08:59:34;10.21;;;5.5;;
36833;SDS011;48003;52.084;5.224;2023-06-22T09:01:10;6.8;;;5.0;;
36833;SDS011;48003;52.084;5.224;2023-06-22T09:02:47;8.71;;;5.3;;
36833;SDS011;48003;52.084;5.224;2023-06-22T09:06:00;8.31;;;5.2;;
36833;SDS011;48003;52.084;5.224;2023-06-22T09:07:36;7.3;;;4.91;;
36833;SDS011;48003;52.084;5.224;2023-06-22T09:09:12;7.5;;;4.91;;
36833;SDS011;48003;52.084;5.224;2023-06-22T09:10:49;5.8;;;4.0;;
36833;SDS011;48003;52.084;5.224;2023-06-22T09:14:02;6.3;;;4.0;;
36833;SDS011;48003;52.084;5.224;2023-06-22T09:15:38;5.9;;;4.3;;
36833;SDS011;48003;52.084;5.224;2023-06-22T09:17:14;6.9;;;3.9;;
36833;SDS011;48003;52.084;5.224;2023-06-22T09:20:26;6.6;;;3.8;;
36833;SDS011;48003;52.084;5.224;2023-06-22T09:22:03;6.4;;;3.8;;
36833;SDS011;48003;52.084;5.224;2023-06-22T09:23:39;6.3;;;3.9;;
36833;SDS011;48003;52.084;5.224;2023-06-22T09:26:51;5.8;;;3.9;;
36833;SDS011;48003;52.084;5.224;2023-06-22T09:28:27;7.4;;;4.2;;
36833;SDS011;48003;52.084;5.224;2023-06-22T09:30:04;6.1;;;3.9;;
36833;SDS011;48003;52.084;5.224;2023-06-22T09:33:17;5.9;;;4.2;;
36833;SDS011;48003;52.084;5.224;2023-06-22T09:34:53;6.4;;;4.1;;
36833;SDS011;48003;52.084;5.224;2023-06-22T09:36:29;4.61;;;3.6;;
36833;SDS011;48003;52.084;5.224;2023-06-22T09:38:05;6.0;;;3.2;;
36833;SDS011;48003;52.084;5.224;2023-06-22T09:41:17;5.5;;;3.4;;
36833;SDS011;48003;52.084;5.224;2023-06-22T09:42:54;5.3;;;2.8;;
36833;SDS011;48003;52.084;5.224;2023-06-22T09:44:30;6.0;;;3.0;;
36833;SDS011;48003;52.084;5.224;2023-06-22T09:47:42;4.7;;;3.0;;
36833;SDS011;48003;52.084;5.224;2023-06-22T09:49:18;7.6;;;3.6;;
36833;SDS011;48003;52.084;5.224;2023-06-22T09:50:54;5.8;;;3.4;;
36833;SDS011;48003;52.084;5.224;2023-06-22T09:54:07;4.3;;;2.9;;
36833;SDS011;48003;52.084;5.224;2023-06-22T09:55:43;4.1;;;3.0;;
36833;SDS011;48003;52.084;5.224;2023-06-22T09:57:19;6.6;;;4.1;;
36833;SDS011;48003;52.084;5.224;2023-06-22T10:00:31;6.6;;;4.1;;
36833;SDS011;48003;52.084;5.224;2023-06-22T10:02:07;5.3;;;3.9;;
36833;SDS011;48003;52.084;5.224;2023-06-22T10:03:45;6.5;;;3.6;;
36833;SDS011;48003;52.084;5.224;2023-06-22T10:05:21;6.3;;;3.6;;
36833;SDS011;48003;52.084;5.224;2023-06-22T10:08:33;5.3;;;4.1;;
36833;SDS011;48003;52.084;5.224;2023-06-22T10:10:09;5.3;;;4.1;;
36833;SDS011;48003;52.084;5.224;2023-06-22T10:11:46;5.5;;;3.6;;
36833;SDS011;48003;52.084;5.224;2023-06-22T10:14:59;5.3;;;3.6;;
36833;SDS011;48003;52.084;5.224;2023-06-22T10:16:35;6.0;;;3.5;;
36833;SDS011;48003;52.084;5.224;2023-06-22T10:18:12;5.2;;;3.8;;
36833;SDS011;48003;52.084;5.224;2023-06-22T10:21:24;7.1;;;3.3;;
36833;SDS011;48003;52.084;5.224;2023-06-22T10:23:00;7.1;;;3.9;;
36833;SDS011;48003;52.084;5.224;2023-06-22T10:24:36;4.8;;;3.4;;
36833;SDS011;48003;52.084;5.224;2023-06-22T10:26:13;5.8;;;4.0;;
36833;SDS011;48003;52.084;5.224;2023-06-22T10:29:25;5.3;;;3.7;;
36833;SDS011;48003;52.084;5.224;2023-06-22T10:31:01;4.91;;;3.8;;
36833;SDS011;48003;52.084;5.224;2023-06-22T10:32:37;7.2;;;4.1;;
36833;SDS011;48003;52.084;5.224;2023-06-22T10:35:51;6.6;;;4.2;;
36833;SDS011;48003;52.084;5.224;2023-06-22T10:37:27;7.1;;;4.8;;
36833;SDS011;48003;52.084;5.224;2023-06-22T10:39:03;8.1;;;4.41;;
36833;SDS011;48003;52.084;5.224;2023-06-22T10:42:15;7.2;;;4.3;;
36833;SDS011;48003;52.084;5.224;2023-06-22T10:43:51;9.0;;;4.7;;
36833;SDS011;48003;52.084;5.224;2023-06-22T10:45:27;7.7;;;4.8;;
36833;SDS011;48003;52.084;5.224;2023-06-22T10:47:04;6.7;;;4.5;;
36833;SDS011;48003;52.084;5.224;2023-06-22T10:50:17;7.8;;;5.2;;
36833;SDS011;48003;52.084;5.224;2023-06-22T10:51:54;7.2;;;5.3;;
36833;SDS011;48003;52.084;5.224;2023-06-22T10:53:30;8.6;;;4.7;;
36833;SDS011;48003;52.084;5.224;2023-06-22T10:56:45;11.7;;;5.8;;
36833;SDS011;48003;52.084;5.224;2023-06-22T10:58:20;7.1;;;5.3;;
36833;SDS011;48003;52.084;5.224;2023-06-22T10:59:57;8.0;;;5.8;;
36833;SDS011;48003;52.084;5.224;2023-06-22T11:03:09;9.31;;;5.4;;
36833;SDS011;48003;52.084;5.224;2023-06-22T11:04:45;7.6;;;4.91;;
36833;SDS011;48003;52.084;5.224;2023-06-22T11:06:21;11.3;;;5.3;;
36833;SDS011;48003;52.084;5.224;2023-06-22T11:09:34;8.1;;;5.5;;
36833;SDS011;48003;52.084;5.224;2023-06-22T11:11:10;7.4;;;5.5;;
36833;SDS011;48003;52.084;5.224;2023-06-22T11:12:46;6.1;;;4.91;;
36833;SDS011;48003;52.084;5.224;2023-06-22T11:14:22;9.71;;;5.9;;
36833;SDS011;48003;52.084;5.224;2023-06-22T11:17:35;8.0;;;6.4;;
36833;SDS011;48003;52.084;5.224;2023-06-22T11:19:12;9.81;;;6.1;;
36833;SDS011;48003;52.084;5.224;2023-06-22T11:20:48;9.5;;;6.6;;
36833;SDS011;48003;52.084;5.224;2023-06-22T11:24:00;11.9;;;7.2;;
36833;SDS011;48003;52.084;5.224;2023-06-22T11:25:36;10.21;;;7.2;;
36833;SDS011;48003;52.084;5.224;2023-06-22T11:27:12;10.1;;;7.4;;
36833;SDS011;48003;52.084;5.224;2023-06-22T11:30:25;10.5;;;7.5;;
36833;SDS011;48003;52.084;5.224;2023-06-22T11:32:01;8.6;;;6.9;;
36833;SDS011;48003;52.084;5.224;2023-06-22T11:33:37;10.1;;;7.5;;
36833;SDS011;48003;52.084;5.224;2023-06-22T11:35:13;10.3;;;7.0;;
36833;SDS011;48003;52.084;5.224;2023-06-22T11:38:25;11.4;;;7.4;;
36833;SDS011;48003;52.084;5.224;2023-06-22T11:40:02;11.4;;;7.4;;
36833;SDS011;48003;52.084;5.224;2023-06-22T11:41:39;9.71;;;6.2;;
36833;SDS011;48003;52.084;5.224;2023-06-22T11:44:51;9.71;;;7.1;;
36833;SDS011;48003;52.084;5.224;2023-06-22T11:46:27;8.71;;;6.5;;
36833;SDS011;48003;52.084;5.224;2023-06-22T11:48:04;7.9;;;5.8;;
36833;SDS011;48003;52.084;5.224;2023-06-22T11:51:17;8.0;;;5.8;;
36833;SDS011;48003;52.084;5.224;2023-06-22T11:52:53;8.5;;;6.1;;
36833;SDS011;48003;52.084;5.224;2023-06-22T11:54:29;10.5;;;5.6;;
36833;SDS011;48003;52.084;5.224;2023-06-22T11:56:05;7.6;;;5.7;;
36833;SDS011;48003;52.084;5.224;2023-06-22T11:59:30;7.1;;;5.11;;
36833;SDS011;48003;52.084;5.224;2023-06-22T12:01:06;6.1;;;4.61;;
36833;SDS011;48003;52.084;5.224;2023-06-22T12:02:42;8.1;;;5.4;;
36833;SDS011;48003;52.084;5.224;2023-06-22T12:05:54;7.6;;;5.2;;
36833;SDS011;48003;52.084;5.224;2023-06-22T12:07:30;7.5;;;4.7;;
36833;SDS011;48003;52.084;5.224;2023-06-22T12:09:07;7.8;;;4.41;;
36833;SDS011;48003;52.084;5.224;2023-06-22T12:10:44;8.71;;;4.1;;
36833;SDS011;48003;52.084;5.224;2023-06-22T12:13:56;7.9;;;5.11;;
36833;SDS011;48003;52.084;5.224;2023-06-22T12:15:32;8.6;;;5.6;;
36833;SDS011;48003;52.084;5.224;2023-06-22T12:17:08;8.1;;;6.0;;
36833;SDS011;48003;52.084;5.224;2023-06-22T12:20:21;9.31;;;6.0;;
36833;SDS011;48003;52.084;5.224;2023-06-22T12:21:57;10.8;;;5.5;;
36833;SDS011;48003;52.084;5.224;2023-06-22T12:23:33;9.1;;;6.3;;
36833;SDS011;48003;52.084;5.224;2023-06-22T12:26:46;8.1;;;5.6;;
36833;SDS011;48003;52.084;5.224;2023-06-22T12:28:23;8.31;;;5.3;;
36833;SDS011;48003;52.084;5.224;2023-06-22T12:29:59;8.0;;;6.2;;
36833;SDS011;48003;52.084;5.224;2023-06-22T12:33:11;8.6;;;6.5;;
36833;SDS011;48003;52.084;5.224;2023-06-22T12:34:47;8.2;;;6.2;;
36833;SDS011;48003;52.084;5.224;2023-06-22T12:36:23;8.0;;;6.3;;
36833;SDS011;48003;52.084;5.224;2023-06-22T12:37:59;9.0;;;5.9;;
36833;SDS011;48003;52.084;5.224;2023-06-22T12:41:12;9.0;;;6.3;;
36833;SDS011;48003;52.084;5.224;2023-06-22T12:42:48;9.1;;;6.2;;
36833;SDS011;48003;52.084;5.224;2023-06-22T12:44:24;9.81;;;6.4;;
36833;SDS011;48003;52.084;5.224;2023-06-22T12:47:37;9.21;;;5.9;;